Map

Track Data

SID SEASON NUMBER BASIN SUBBASIN NAME ISO_TIME NATURE LAT LON WMO_WIND WMO_PRES WMO_AGENCY TRACK_TYPE DIST2LAND LANDFALL IFLAG USA_AGENCY USA_ATCF_ID USA_LAT USA_LON USA_RECORD USA_STATUS USA_WIND USA_PRES USA_SSHS USA_R34_NE USA_R34_SE USA_R34_SW USA_R34_NW USA_R50_NE USA_R50_SE USA_R50_SW USA_R50_NW USA_R64_NE USA_R64_SE USA_R64_SW USA_R64_NW USA_POCI USA_ROCI USA_RMW USA_EYE TOKYO_LAT TOKYO_LON TOKYO_GRADE TOKYO_WIND TOKYO_PRES TOKYO_R50_DIR TOKYO_R50_LONG TOKYO_R50_SHORT TOKYO_R30_DIR TOKYO_R30_LONG TOKYO_R30_SHORT TOKYO_LAND CMA_LAT CMA_LON CMA_CAT CMA_WIND CMA_PRES HKO_LAT HKO_LON HKO_CAT HKO_WIND HKO_PRES NEWDELHI_LAT NEWDELHI_LON NEWDELHI_GRADE NEWDELHI_WIND NEWDELHI_PRES NEWDELHI_CI NEWDELHI_DP NEWDELHI_POCI REUNION_LAT REUNION_LON REUNION_TYPE REUNION_WIND REUNION_PRES REUNION_TNUM REUNION_CI REUNION_RMW REUNION_R34_NE REUNION_R34_SE REUNION_R34_SW REUNION_R34_NW REUNION_R50_NE REUNION_R50_SE REUNION_R50_SW REUNION_R50_NW REUNION_R64_NE REUNION_R64_SE REUNION_R64_SW REUNION_R64_NW BOM_LAT BOM_LON BOM_TYPE BOM_WIND BOM_PRES BOM_TNUM BOM_CI BOM_RMW BOM_R34_NE BOM_R34_SE BOM_R34_SW BOM_R34_NW BOM_R50_NE BOM_R50_SE BOM_R50_SW BOM_R50_NW BOM_R64_NE BOM_R64_SE BOM_R64_SW BOM_R64_NW BOM_ROCI BOM_POCI BOM_EYE BOM_POS_METHOD BOM_PRES_METHOD NADI_LAT NADI_LON NADI_CAT NADI_WIND NADI_PRES WELLINGTON_LAT WELLINGTON_LON WELLINGTON_WIND WELLINGTON_PRES DS824_LAT DS824_LON DS824_STAGE DS824_WIND DS824_PRES TD9636_LAT TD9636_LON TD9636_STAGE TD9636_WIND TD9636_PRES TD9635_LAT TD9635_LON TD9635_WIND TD9635_PRES TD9635_ROCI NEUMANN_LAT NEUMANN_LON NEUMANN_CLASS NEUMANN_WIND NEUMANN_PRES MLC_LAT MLC_LON MLC_CLASS MLC_WIND MLC_PRES USA_GUST BOM_GUST BOM_GUST_PER REUNION_GUST REUNION_GUST_PER USA_SEAHGT USA_SEARAD_NE USA_SEARAD_SE USA_SEARAD_SW USA_SEARAD_NW STORM_SPEED STORM_DIR
1892119N17061 1892 16 NI AS NOT_NAMED 1892-04-28 00:00:00 TS 16.8000 60.8000 main 401 401 _________O____ -1 16.8000 60.8000 TC 64 5 49
1892119N17061 1892 16 NI AS NOT_NAMED 1892-04-28 03:00:00 TS 16.9667 60.9982 main 405 405 _________PO___ -1 17.0501 61.0974 TC 64 16.8000 60.8000 4 6 49
1892119N17061 1892 16 NI AS NOT_NAMED 1892-04-28 06:00:00 TS 17.2033 61.2841 main 421 421 _________OP___ -1 17.3000 61.4000 TC 64 17.0583 61.1101 4 7 49
1892119N17061 1892 16 NI AS NOT_NAMED 1892-04-28 09:00:00 TS 17.4484 61.5829 main 439 434 _________PP___ -1 17.5500 61.7076 TC 64 17.3130 61.4166 4 7 49
1892119N17061 1892 16 NI AS NOT_NAMED 1892-04-28 12:00:00 TS 17.6806 61.8574 main 456 452 _________OP___ -1 17.8000 62.0000 TC 64 17.5613 61.7148 4 7 47
1892119N17061 1892 16 NI AS NOT_NAMED 1892-04-28 15:00:00 TS 17.9287 62.1250 main 469 469 _________PO___ -1 18.0574 62.2501 TC 64 17.8000 62.0000 4 7 46
1892119N17061 1892 16 NI AS NOT_NAMED 1892-04-28 18:00:00 TS 18.1639 62.3852 main 477 477 _________OP___ -1 18.3000 62.5000 TC 64 18.0278 62.2705 4 7 49
1892119N17061 1892 16 NI AS NOT_NAMED 1892-04-28 21:00:00 TS 18.3748 62.6604 main 488 488 _________PP___ -1 18.4999 62.7852 TC 64 18.2496 62.5357 4 7 52
1892119N17061 1892 16 NI AS NOT_NAMED 1892-04-29 00:00:00 TS 18.5858 62.9540 main 497 497 _________OP___ -1 18.7000 63.1000 TC 64 18.4715 62.8080 4 7 52
1892119N17061 1892 16 NI AS NOT_NAMED 1892-04-29 03:00:00 TS 18.8212 63.2713 main 508 502 _________PO___ -1 18.9425 63.4425 TC 64 18.7000 63.1000 4 8 52
1892119N17061 1892 16 NI AS NOT_NAMED 1892-04-29 06:00:00 TS 19.0755 63.6202 main 517 517 _________OP___ -1 19.2000 63.8000 TC 64 18.9511 63.4405 4 8 53
1892119N17061 1892 16 NI AS NOT_NAMED 1892-04-29 09:00:00 TS 19.3326 63.9786 main 542 536 _________PP___ -1 19.4575 64.1575 TC 64 19.2077 63.7998 4 8 53
1892119N17061 1892 16 NI AS NOT_NAMED 1892-04-29 12:00:00 TS 19.5802 64.3296 main 550 526 _________OP___ -1 19.7000 64.5000 TC 64 19.4605 64.1592 4 8 54
1892119N17061 1892 16 NI AS NOT_NAMED 1892-04-29 15:00:00 TS 19.8037 64.6576 main 517 487 _________PO___ -1 19.9074 64.8151 TC 64 19.7000 64.5000 4 7 54
1892119N17061 1892 16 NI AS NOT_NAMED 1892-04-29 18:00:00 TS 20.0008 64.9386 main 487 449 _________OP___ -1 20.1000 65.1000 TC 64 19.9016 64.7771 4 6 52
1892119N17061 1892 16 NI AS NOT_NAMED 1892-04-29 21:00:00 TS 20.1883 65.1858 main 449 420 _________PP___ -1 20.2848 65.3353 TC 64 20.0917 65.0362 4 6 51
1892119N17061 1892 16 NI AS NOT_NAMED 1892-04-30 00:00:00 TS 20.3930 65.4511 main 411 372 _________OP___ -1 20.5000 65.6000 TC 64 20.2860 65.3022 4 7 51
1892119N17061 1892 16 NI AS NOT_NAMED 1892-04-30 03:00:00 TS 20.6463 65.7887 main 372 319 _________PO___ -1 20.7925 65.9774 TC 64 20.5000 65.6000 4 9 52
1892119N17061 1892 16 NI AS NOT_NAMED 1892-04-30 06:00:00 TS 20.9350 66.1879 main 319 267 _________OP___ -1 21.1000 66.4000 TC 64 20.7700 65.9757 4 9 53
1892119N17061 1892 16 NI AS NOT_NAMED 1892-04-30 09:00:00 TS 21.2114 66.5996 main 267 215 _________PP___ -1 21.3650 66.8151 TC 64 21.0579 66.3842 4 9 55
1892119N17061 1892 16 NI AS NOT_NAMED 1892-04-30 12:00:00 TS 21.4709 67.0004 main 215 178 _________OP___ -1 21.6000 67.2000 TC 64 21.3418 66.8007 4 9 55
1892119N17061 1892 16 NI AS NOT_NAMED 1892-04-30 15:00:00 TS 21.7074 67.3538 main 168 145 _________PO___ -1 21.8148 67.5077 TC 55 21.6000 67.2000 4 7 58
1892119N17061 1892 16 NI AS NOT_NAMED 1892-04-30 18:00:00 TS 21.8397 67.6237 main 145 121 _________OP___ -1 22.0000 67.8000 TC 47 21.6794 67.4475 4 5 68
1892119N17061 1892 16 NI AS NOT_NAMED 1892-04-30 21:00:00 TS 21.9011 67.8642 main 112 75 _________PP___ -1 22.0514 68.0400 TC 38 21.7509 67.6884 4 6 65
1892119N17061 1892 16 NI AS NOT_NAMED 1892-05-01 00:00:00 TS 22.1111 68.2549 main 65 23 _________OP___ -1 22.3000 68.5000 TC 30 21.9222 68.0097 4 13 54
1892119N17061 1892 16 NI AS NOT_NAMED 1892-05-01 03:00:00 TS 22.6620 68.9829 main 23 0 _________PO___ -1 23.0239 69.4659 TC 30 22.3000 68.5000 1 21 48
1892119N17061 1892 16 NI AS NOT_NAMED 1892-05-01 06:00:00 TS 23.5048 69.9590 main 0 0 _________OP___ -1 24.0000 70.6000 TC 30 23.0095 69.3180 1 25 45
1892119N17061 1892 16 NI AS NOT_NAMED 1892-05-01 09:00:00 TS 24.4579 70.9258 main 0 0 _________PP___ -1 24.9918 71.5382 TC 30 23.9239 70.3134 1 26 42
1892119N17061 1892 16 NI AS NOT_NAMED 1892-05-01 12:00:00 TS 25.4753 71.8892 main 0 0 _________OP___ -1 26.0000 72.4000 TC 30 24.9506 71.3783 1 26 41
1892119N17061 1892 16 NI AS NOT_NAMED 1892-05-01 15:00:00 TS 26.4498 72.8159 main 0 0 _________PO___ -1 26.8995 73.2318 TC 30 26.0000 72.4000 1 24 39
1892119N17061 1892 16 NI AS NOT_NAMED 1892-05-01 18:00:00 TS 27.3448 73.5926 main 0 0 _________OP___ -1 27.8000 74.0000 TC 30 27.0033 73.2871 1 23 36
1892119N17061 1892 16 NI AS NOT_NAMED 1892-05-01 21:00:00 TS 28.2868 74.3173 main 0 0 _________PP___ -1 28.7757 74.7120 TC 30 27.9610 74.0542 1 22 33
1892119N17061 1892 16 NI AS NOT_NAMED 1892-05-02 00:00:00 TS 29.1923 74.9626 main 0 0 _________OP___ -1 29.8000 75.4000 TC 30 28.8885 74.7439 1 18 32
1892119N17061 1892 16 NI AS NOT_NAMED 1892-05-02 03:00:00 NR 29.8000 75.4000 main 0 __________O___ -1 TC 29.8000 75.4000 1 14 32

About IBTrACS Database

This database is a web-friendly format of International Best Track Archive for Climate Stewardship (IBTrACS), a global best track data archive curated by NOAA dating back to 1842.

Updated: 2021-12-06